Time;durP1;ratioP1;P1;durP2;ratioP2;P2;SDS_P1;SDS_P2;PMS_P1;PMS_P2;Temp;Humidity;BMP_temperature;BMP_pressure;BME280_temperature;BME280_humidity;BME280_pressure;Samples;Min_cycle;Max_cycle;Signal;HPM_P1;HPM_P2
2024/01/21 07:30:13;;;;;;;22.90;10.00;;;;;;;-1.37;100.00;101040.95;110013;1239;23870;-51
2024/01/21 07:32:40;;;;;;;21.20;11.50;;;;;;;-1.35;100.00;101040.73;111075;1247;184991;-46
2024/01/21 07:35:10;;;;;;;22.80;12.00;;;;;;;-1.31;100.00;101043.17;112939;1241;22391;-45
2024/01/21 07:37:37;;;;;;;21.50;10.90;;;;;;;-1.29;100.00;101048.92;112962;1246;22354;-45
2024/01/21 07:40:04;;;;;;;19.00;9.90;;;;;;;-1.28;100.00;101046.37;110776;1240;25261;-51
2024/01/21 07:42:32;;;;;;;20.70;10.20;;;;;;;-1.22;100.00;101051.54;110312;1240;22493;-45
2024/01/21 07:44:59;;;;;;;22.40;10.90;;;;;;;-1.15;100.00;101051.50;110648;1246;22543;-52
2024/01/21 07:47:26;;;;;;;18.30;10.10;;;;;;;-1.09;100.00;101051.33;110186;1249;24213;-51
2024/01/21 07:49:52;;;;;;;34.40;15.20;;;;;;;-1.04;100.00;101052.62;110296;1249;25425;-52
2024/01/21 07:52:20;;;;;;;21.60;11.40;;;;;;;-1.00;100.00;101057.14;110937;1248;22530;-45
2024/01/21 07:54:47;;;;;;;18.80;9.80;;;;;;;-0.95;100.00;101060.35;110749;1236;25906;-47
2024/01/21 07:57:13;;;;;;;22.10;10.30;;;;;;;-0.91;100.00;101059.02;111618;1240;22625;-51
2024/01/21 07:59:40;;;;;;;18.90;9.80;;;;;;;-0.92;100.00;101063.96;112652;1244;22636;-50
2024/01/21 08:02:08;;;;;;;22.50;11.50;;;;;;;-0.90;100.00;101070.20;111993;1241;23197;-46
2024/01/21 08:04:35;;;;;;;23.50;12.30;;;;;;;-0.92;100.00;101067.55;111576;1239;22510;-51
2024/01/21 08:07:02;;;;;;;22.80;12.30;;;;;;;-0.94;100.00;101070.69;111796;1239;22519;-52
2024/01/21 08:09:29;;;;;;;23.90;12.70;;;;;;;-0.93;100.00;101074.14;112347;1239;22418;-46
2024/01/21 08:11:56;;;;;;;17.50;9.60;;;;;;;-0.91;100.00;101076.50;112281;1246;23188;-46
2024/01/21 08:14:23;;;;;;;15.00;9.20;;;;;;;-0.88;100.00;101079.20;111680;1240;22630;-54
2024/01/21 08:16:49;;;;;;;16.40;9.80;;;;;;;-0.86;100.00;101083.67;111182;1246;22514;-46
2024/01/21 08:19:17;;;;;;;26.10;11.40;;;;;;;-0.83;100.00;101087.44;112689;1240;23268;-45
2024/01/21 08:21:44;;;;;;;26.10;13.50;;;;;;;-0.79;100.00;101092.63;110955;1240;22426;-50
2024/01/21 08:24:11;;;;;;;17.30;9.90;;;;;;;-0.76;100.00;101092.44;111689;1238;23867;-48
2024/01/21 08:26:37;;;;;;;21.00;12.60;;;;;;;-0.72;100.00;101091.45;111315;1246;25207;-47
2024/01/21 08:29:04;;;;;;;17.90;11.10;;;;;;;-0.71;100.00;101096.86;111050;1240;23073;-48
2024/01/21 08:31:31;;;;;;;17.70;10.80;;;;;;;-0.66;100.00;101100.24;112911;1245;22916;-46
2024/01/21 08:33:58;;;;;;;17.70;10.50;;;;;;;-0.57;100.00;101102.45;112874;1249;22362;-50
2024/01/21 08:36:25;;;;;;;16.40;11.10;;;;;;;-0.47;100.00;101102.33;111453;1239;22548;-46
2024/01/21 08:38:51;;;;;;;18.70;10.40;;;;;;;-0.36;100.00;101099.20;112714;1246;22460;-52
2024/01/21 08:41:18;;;;;;;24.40;11.20;;;;;;;-0.25;100.00;101101.02;112550;1249;22503;-45
2024/01/21 08:43:45;;;;;;;20.70;9.90;;;;;;;-0.13;100.00;101101.17;112672;1249;22420;-46
2024/01/21 08:46:12;;;;;;;17.60;9.60;;;;;;;-0.05;100.00;101102.48;112974;1244;22359;-52
2024/01/21 08:48:42;;;;;;;19.10;11.00;;;;;;;0.02;100.00;101104.89;112084;1246;23155;-52
2024/01/21 08:51:10;;;;;;;19.00;10.90;;;;;;;0.07;100.00;101106.22;112950;1248;22340;-48
2024/01/21 08:53:37;;;;;;;14.20;9.50;;;;;;;0.14;100.00;101103.20;112972;1245;23180;-46
2024/01/21 08:56:04;;;;;;;15.60;8.10;;;;;;;0.22;100.00;101106.36;111121;1239;22517;-51
2024/01/21 08:58:31;;;;;;;23.40;11.80;;;;;;;0.28;100.00;101106.15;111222;1239;25701;-51
2024/01/21 09:01:00;;;;;;;20.40;10.50;;;;;;;0.30;100.00;101109.89;112952;1238;22332;-52
2024/01/21 09:03:27;;;;;;;17.40;9.60;;;;;;;0.33;100.00;101112.63;110908;1242;22622;-52
2024/01/21 09:05:54;;;;;;;14.70;9.40;;;;;;;0.37;100.00;101112.86;110194;1246;25384;-52
2024/01/21 09:08:21;;;;;;;19.90;10.00;;;;;;;0.41;100.00;101112.16;110246;1240;22616;-46
2024/01/21 09:10:48;;;;;;;11.50;7.50;;;;;;;0.43;100.00;101114.21;110351;1247;22607;-53
2024/01/21 09:13:15;;;;;;;13.10;8.80;;;;;;;0.47;100.00;101109.93;112949;1239;22377;-54
2024/01/21 09:15:42;;;;;;;14.90;9.40;;;;;;;0.50;100.00;101112.16;112926;1249;22387;-52
2024/01/21 09:18:09;;;;;;;17.50;9.90;;;;;;;0.50;100.00;101114.05;112940;1246;22259;-51
2024/01/21 09:20:35;;;;;;;16.00;9.70;;;;;;;0.52;100.00;101115.35;112908;1240;23034;-46
2024/01/21 09:23:02;;;;;;;17.80;10.80;;;;;;;0.53;100.00;101117.83;112908;1237;23008;-46
2024/01/21 09:25:29;;;;;;;18.60;10.00;;;;;;;0.61;100.00;101120.08;112907;1247;22241;-46
2024/01/21 09:27:56;;;;;;;17.50;9.70;;;;;;;0.67;100.00;101120.63;112938;1240;22373;-52
2024/01/21 09:30:22;;;;;;;14.70;9.60;;;;;;;0.67;100.00;101122.69;112944;1240;23630;-52
2024/01/21 09:32:49;;;;;;;18.50;9.00;;;;;;;0.62;100.00;101126.38;112531;1239;22500;-54
2024/01/21 09:35:16;;;;;;;16.80;9.10;;;;;;;0.57;100.00;101121.61;112910;1240;22220;-49
2024/01/21 09:37:43;;;;;;;19.90;10.30;;;;;;;0.55;100.00;101122.55;112894;1240;22559;-48
2024/01/21 09:40:11;;;;;;;20.90;9.40;;;;;;;0.57;100.00;101123.50;112890;1239;22152;-52
2024/01/21 09:42:38;;;;;;;19.20;9.90;;;;;;;0.60;100.00;101122.31;112960;1240;23113;-52
2024/01/21 09:45:05;;;;;;;16.20;9.00;;;;;;;0.66;100.00;101127.41;112948;1246;22419;-51
2024/01/21 09:47:33;;;;;;;14.00;8.90;;;;;;;0.66;100.00;101131.89;111252;1242;22509;-47
2024/01/21 09:50:00;;;;;;;15.00;9.10;;;;;;;0.64;100.00;101128.02;110656;1239;22563;-45
2024/01/21 09:52:26;;;;;;;16.80;9.80;;;;;;;0.67;100.00;101134.00;109802;1242;24202;-52
2024/01/21 09:54:53;;;;;;;14.50;9.10;;;;;;;0.67;100.00;101131.58;110293;1249;22487;-53
2024/01/21 09:57:21;;;;;;;18.70;10.50;;;;;;;0.64;100.00;101132.48;110216;1247;22505;-53
2024/01/21 09:59:48;;;;;;;17.60;9.90;;;;;;;0.62;100.00;101132.37;109826;1248;22512;-52
2024/01/21 10:02:18;;;;;;;19.60;10.10;;;;;;;0.65;100.00;101132.87;110120;1246;24312;-46
2024/01/21 10:04:45;;;;;;;17.10;9.90;;;;;;;0.70;100.00;101134.02;110007;1248;26743;-47
2024/01/21 10:07:12;;;;;;;14.00;9.50;;;;;;;0.80;100.00;101132.98;110224;1241;23207;-45
2024/01/21 10:09:40;;;;;;;19.00;10.70;;;;;;;0.88;100.00;101135.65;110070;1245;22516;-52
2024/01/21 10:12:07;;;;;;;16.30;10.00;;;;;;;0.93;100.00;101139.50;110235;1249;25329;-46
2024/01/21 10:14:33;;;;;;;15.20;9.80;;;;;;;0.97;100.00;101144.48;109936;1247;22520;-51
2024/01/21 10:17:00;;;;;;;16.30;10.20;;;;;;;0.94;100.00;101146.96;109968;1237;22518;-51
2024/01/21 10:19:31;;;;;;;14.80;10.10;;;;;;;0.91;100.00;101150.36;109756;1249;22556;-46
2024/01/21 10:22:13;;;;;;;19.50;10.20;;;;;;;0.90;100.00;101148.77;109678;1240;24217;-46
2024/01/21 10:24:41;;;;;;;17.40;10.10;;;;;;;0.90;100.00;101153.42;110015;1241;22595;-52
2024/01/21 10:27:09;;;;;;;17.30;8.90;;;;;;;0.94;100.00;101152.77;109838;1241;22505;-53
2024/01/21 10:29:42;;;;;;;20.40;11.50;;;;;;;0.97;100.00;101154.13;109584;1240;22661;-52
2024/01/21 10:32:14;;;;;;;17.10;10.20;;;;;;;1.01;100.00;101152.96;109818;1240;24210;-52
2024/01/21 10:34:49;;;;;;;17.10;10.00;;;;;;;1.07;100.00;101155.19;109855;1238;22761;-48
2024/01/21 10:37:17;;;;;;;14.70;9.70;;;;;;;1.11;100.00;101157.09;110215;1240;23303;-52
2024/01/21 10:39:45;;;;;;;15.40;9.10;;;;;;;1.07;100.00;101163.43;110140;1240;23882;-52
2024/01/21 10:42:13;;;;;;;14.40;10.20;;;;;;;1.04;100.00;101163.63;110477;1239;25253;-51
2024/01/21 10:44:40;;;;;;;16.80;9.40;;;;;;;1.05;100.00;101168.99;112206;1240;22280;-54
2024/01/21 10:47:07;;;;;;;17.70;10.10;;;;;;;1.07;100.00;101175.46;110147;1241;22477;-51
2024/01/21 10:49:35;;;;;;;15.90;10.70;;;;;;;1.06;100.00;101178.46;110394;1240;25475;-53
2024/01/21 10:52:03;;;;;;;18.30;11.30;;;;;;;1.01;100.00;101175.30;110144;1240;26666;-51
2024/01/21 10:54:29;;;;;;;17.20;10.50;;;;;;;0.96;100.00;101183.81;110487;1247;22599;-47
2024/01/21 10:56:59;;;;;;;18.30;11.10;;;;;;;0.91;100.00;101182.50;109647;1241;22677;-52
2024/01/21 10:59:26;;;;;;;16.80;10.80;;;;;;;0.86;100.00;101186.20;112664;1249;22422;-47
2024/01/21 11:01:53;;;;;;;15.40;10.50;;;;;;;0.83;100.00;101192.70;112703;1249;22456;-46
2024/01/21 11:04:21;;;;;;;17.80;10.90;;;;;;;0.78;100.00;101195.94;112237;1249;22620;-48
2024/01/21 11:06:51;;;;;;;20.30;10.90;;;;;;;0.76;100.00;101197.54;110639;1249;22517;-51
2024/01/21 11:09:22;;;;;;;22.70;12.90;;;;;;;0.75;100.00;101202.23;111251;1249;22518;-46
2024/01/21 11:11:50;;;;;;;25.60;13.90;;;;;;;0.74;100.00;101202.41;112938;1249;22379;-52
2024/01/21 11:14:30;;;;;;;23.00;14.40;;;;;;;0.78;100.00;101203.14;111840;1249;22454;-53
2024/01/21 11:16:58;;;;;;;49.20;25.60;;;;;;;0.84;100.00;101204.46;112956;1249;22118;-52
2024/01/21 11:19:47;;;;;;;22.70;15.60;;;;;;;0.89;100.00;101202.67;112916;1249;22347;-46
2024/01/21 11:22:14;;;;;;;15.90;10.60;;;;;;;0.94;100.00;101207.06;112816;1249;22389;-53
2024/01/21 11:24:43;;;;;;;18.30;10.40;;;;;;;0.95;100.00;101204.71;112944;1240;23311;-47
2024/01/21 11:27:26;;;;;;;15.70;10.30;;;;;;;0.96;100.00;101208.01;112967;1240;22184;-44
2024/01/21 11:29:53;;;;;;;;;;;;;;;0.95;100.00;101206.97;111455;1249;22519;-52
2024/01/21 11:32:25;;;;;;;18.20;10.00;;;;;;;0.95;100.00;101208.48;113003;1239;22360;-47
2024/01/21 11:34:52;;;;;;;16.50;10.50;;;;;;;0.95;100.00;101212.92;112970;1249;23200;-52
2024/01/21 11:37:20;;;;;;;19.50;11.80;;;;;;;0.94;100.00;101213.43;111748;1239;25373;-47
2024/01/21 11:39:47;;;;;;;18.50;10.70;;;;;;;0.95;100.00;101212.98;112290;1249;22587;-45
2024/01/21 11:42:15;;;;;;;19.30;11.70;;;;;;;0.97;100.00;101215.27;111955;1237;22422;-45
2024/01/21 11:44:42;;;;;;;23.50;13.00;;;;;;;0.99;100.00;101216.23;109747;1249;22622;-47
2024/01/21 11:47:09;;;;;;;28.00;14.10;;;;;;;0.99;100.00;101219.90;110017;1249;24214;-47
2024/01/21 11:49:36;;;;;;;28.10;15.10;;;;;;;1.00;100.00;101224.55;111763;1242;22280;-52
2024/01/21 11:52:06;;;;;;;24.20;13.70;;;;;;;1.01;100.00;101226.84;112353;1247;22413;-52
2024/01/21 11:54:39;;;;;;;17.50;11.60;;;;;;;1.02;100.00;101229.66;112196;1238;22967;-53
2024/01/21 11:57:06;;;;;;;19.70;11.80;;;;;;;1.05;100.00;101233.95;112052;1238;22529;-51
2024/01/21 11:59:34;;;;;;;19.10;10.60;;;;;;;1.05;100.00;101234.45;111087;1238;22603;-53
2024/01/21 12:02:01;;;;;;;16.90;10.70;;;;;;;1.05;100.00;101234.65;111648;1238;25336;-48
2024/01/21 12:04:29;;;;;;;16.80;10.50;;;;;;;1.05;100.00;101239.77;110640;1238;23452;-47
2024/01/21 12:06:57;;;;;;;17.10;11.60;;;;;;;1.07;100.00;101245.19;111319;1248;23598;-47
2024/01/21 12:09:24;;;;;;;18.30;11.00;;;;;;;1.10;100.00;101249.64;112732;1244;23190;-54
2024/01/21 12:11:51;;;;;;;18.90;12.40;;;;;;;1.10;100.00;101253.64;112954;1249;22360;-46
2024/01/21 12:14:19;;;;;;;20.60;12.00;;;;;;;1.10;100.00;101255.69;112777;1248;22993;-46
2024/01/21 12:16:51;;;;;;;24.00;14.20;;;;;;;1.11;100.00;101249.34;112361;1240;23515;-52
2024/01/21 12:19:18;;;;;;;29.40;14.90;;;;;;;1.10;100.00;101253.42;111987;1245;25274;-47
2024/01/21 12:21:45;;;;;;;17.40;12.50;;;;;;;1.09;100.00;101258.52;110088;1249;22527;-45
2024/01/21 12:24:12;;;;;;;20.00;12.10;;;;;;;1.08;100.00;101264.98;110734;1249;22512;-47
2024/01/21 12:26:39;;;;;;;18.00;11.20;;;;;;;1.06;100.00;101268.52;110737;1249;22746;-52
2024/01/21 12:29:09;;;;;;;14.40;10.00;;;;;;;1.03;100.00;101276.25;110729;1241;26474;-52
2024/01/21 12:31:37;;;;;;;17.80;10.90;;;;;;;1.00;100.00;101280.25;111115;1249;23340;-45
2024/01/21 12:34:08;;;;;;;23.50;12.60;;;;;;;0.98;100.00;101280.27;110679;1247;23866;-53
2024/01/21 12:36:37;;;;;;;27.00;14.50;;;;;;;0.98;100.00;101288.53;110962;1249;22511;-47
2024/01/21 12:39:04;;;;;;;17.70;12.10;;;;;;;0.99;100.00;101291.89;110691;1249;25969;-46
2024/01/21 12:41:32;;;;;;;21.80;13.20;;;;;;;1.02;100.00;101294.80;111026;1249;22521;-47
2024/01/21 12:43:58;;;;;;;17.40;11.40;;;;;;;1.03;100.00;101295.20;111282;1240;22512;-52
2024/01/21 12:46:25;;;;;;;21.10;11.40;;;;;;;1.05;100.00;101299.55;110903;1249;22502;-52
2024/01/21 12:48:53;;;;;;;18.80;12.40;;;;;;;1.05;100.00;101299.59;112586;1240;22394;-52
2024/01/21 12:51:20;;;;;;;16.70;11.20;;;;;;;1.03;100.00;101300.52;112987;1249;22861;-52
2024/01/21 12:53:51;;;;;;;19.50;12.00;;;;;;;1.03;100.00;101305.63;112975;1249;22370;-47
2024/01/21 12:56:19;;;;;;;16.20;10.40;;;;;;;1.02;100.00;101309.38;112983;1240;22295;-47
2024/01/21 12:58:46;;;;;;;17.80;12.10;;;;;;;1.01;100.00;101310.52;112989;1238;22472;-52
2024/01/21 13:01:12;;;;;;;17.00;12.30;;;;;;;1.01;100.00;101312.77;112819;1241;22783;-53
2024/01/21 13:03:40;;;;;;;21.10;12.10;;;;;;;1.03;100.00;101313.89;111433;1249;22700;-46
2024/01/21 13:06:07;;;;;;;18.60;12.10;;;;;;;1.03;100.00;101313.59;110415;1241;25372;-47
2024/01/21 13:08:39;;;;;;;18.10;12.00;;;;;;;1.06;100.00;101313.04;110616;1249;24827;-54
